createdAt,value
2022-09-06T00:01:08.622Z,6.07
2022-09-06T00:03:36.254Z,6.32
2022-09-06T00:06:09.966Z,5.65
2022-09-06T00:08:37.765Z,4.72
2022-09-06T00:11:05.505Z,5.50
2022-09-06T00:13:33.422Z,5.18
2022-09-06T00:16:06.448Z,5.32
2022-09-06T00:18:34.022Z,5.35
2022-09-06T00:21:01.986Z,4.80
2022-09-06T00:23:31.192Z,5.50
2022-09-06T00:26:05.263Z,5.75
2022-09-06T00:28:32.677Z,5.00
2022-09-06T00:31:07.510Z,4.75
2022-09-06T00:33:35.091Z,5.43
2022-09-06T00:36:03.169Z,4.47
2022-09-06T00:38:32.085Z,4.20
2022-09-06T00:40:59.892Z,5.07
2022-09-06T00:43:27.386Z,4.72
2022-09-06T00:45:56.150Z,4.90
2022-09-06T00:48:24.599Z,6.18
2022-09-06T00:50:55.491Z,6.25
2022-09-06T00:53:23.692Z,6.13
2022-09-06T00:55:53.131Z,6.50
2022-09-06T00:58:21.013Z,6.78
2022-09-06T01:00:48.564Z,6.15
2022-09-06T01:03:16.254Z,6.90
2022-09-06T01:05:54.668Z,6.03
2022-09-06T01:08:33.663Z,5.78
2022-09-06T01:11:26.900Z,5.97
2022-09-06T01:14:05.989Z,6.10
2022-09-06T01:16:45.889Z,5.90
2022-09-06T01:19:54.106Z,5.70
2022-09-06T01:22:48.148Z,5.55
2022-09-06T01:25:33.358Z,6.13
2022-09-06T01:28:30.682Z,6.40
2022-09-06T01:31:05.916Z,6.75
2022-09-06T01:33:41.287Z,7.28
2022-09-06T01:36:14.189Z,7.00
2022-09-06T01:38:41.765Z,5.90
2022-09-06T01:41:10.108Z,5.20
2022-09-06T01:43:41.869Z,4.40
2022-09-06T01:46:17.938Z,4.70
2022-09-06T01:49:14.142Z,5.10
2022-09-06T01:51:57.982Z,4.40
2022-09-06T01:54:39.985Z,4.65
2022-09-06T01:57:20.039Z,4.32
2022-09-06T02:00:08.291Z,4.05
2022-09-06T02:02:52.786Z,3.70
2022-09-06T02:05:26.271Z,3.22
2022-09-06T02:07:58.211Z,3.67
2022-09-06T02:10:31.738Z,3.75
2022-09-06T02:13:02.072Z,4.22
2022-09-06T02:15:34.975Z,3.65
2022-09-06T02:18:06.710Z,3.72
2022-09-06T02:20:39.326Z,3.50
2022-09-06T02:23:07.823Z,3.33
2022-09-06T02:25:38.669Z,3.30
2022-09-06T02:28:07.628Z,3.60
2022-09-06T02:30:40.770Z,3.10
2022-09-06T02:33:13.466Z,3.30
2022-09-06T02:35:45.993Z,3.67
2022-09-06T02:38:13.483Z,2.85
2022-09-06T02:40:41.042Z,2.95
2022-09-06T02:43:08.872Z,3.03
2022-09-06T02:45:38.120Z,3.20
2022-09-06T02:48:05.786Z,3.10
2022-09-06T02:50:33.256Z,2.90
2022-09-06T02:53:06.591Z,2.70
2022-09-06T02:55:34.132Z,2.90
2022-09-06T02:58:01.638Z,2.30
2022-09-06T03:00:29.771Z,2.40
2022-09-06T03:02:58.685Z,2.40
2022-09-06T03:05:27.590Z,2.10
2022-09-06T03:07:55.683Z,2.43
2022-09-06T03:10:24.094Z,3.35
2022-09-06T03:12:51.591Z,2.70
2022-09-06T03:15:19.439Z,3.20
2022-09-06T03:17:46.941Z,2.92
2022-09-06T03:20:15.884Z,2.83
2022-09-06T03:22:43.345Z,2.20
2022-09-06T03:25:11.524Z,2.50
2022-09-06T03:27:38.982Z,2.97
2022-09-06T03:30:07.466Z,3.53
2022-09-06T03:32:34.923Z,4.95
2022-09-06T03:35:04.003Z,6.22
2022-09-06T03:37:32.900Z,7.55
2022-09-06T03:40:00.530Z,7.90
2022-09-06T03:42:28.086Z,7.68
2022-09-06T03:44:55.500Z,5.75
2022-09-06T03:47:23.046Z,4.57
2022-09-06T03:49:50.603Z,4.90
2022-09-06T03:52:18.536Z,4.43
2022-09-06T03:54:47.449Z,4.22
2022-09-06T03:57:14.997Z,4.23
2022-09-06T03:59:42.491Z,5.40
2022-09-06T04:02:10.074Z,5.30
2022-09-06T04:04:37.705Z,4.80
2022-09-06T04:07:05.260Z,4.30
2022-09-06T04:09:32.774Z,4.65
2022-09-06T04:12:01.734Z,4.45
2022-09-06T04:14:29.189Z,3.90
2022-09-06T04:16:56.714Z,4.13
2022-09-06T04:19:24.268Z,4.30
2022-09-06T04:21:51.717Z,5.20
2022-09-06T04:24:19.176Z,4.75
2022-09-06T04:26:46.661Z,3.95
2022-09-06T04:29:15.593Z,3.92
2022-09-06T04:31:43.119Z,3.90
2022-09-06T04:34:10.650Z,3.80
2022-09-06T04:36:38.195Z,3.97
2022-09-06T04:39:05.586Z,3.92
2022-09-06T04:41:33.630Z,4.07
2022-09-06T04:44:01.068Z,4.78
2022-09-06T04:46:30.892Z,4.68
2022-09-06T04:51:25.641Z,4.20
2022-09-06T04:53:53.334Z,4.57
2022-09-06T04:56:23.012Z,4.15
2022-09-06T04:58:51.693Z,3.85
2022-09-06T05:01:19.367Z,3.80
2022-09-06T05:03:48.495Z,3.80
2022-09-06T05:06:20.048Z,4.20
2022-09-06T05:08:48.099Z,3.75
2022-09-06T05:11:15.990Z,4.78
2022-09-06T05:13:43.863Z,4.40
2022-09-06T05:16:11.363Z,15.48
2022-09-06T05:18:39.006Z,9.35
2022-09-06T05:21:08.005Z,7.30
2022-09-06T05:23:35.558Z,6.97
2022-09-06T05:26:03.164Z,7.35
2022-09-06T05:28:30.818Z,6.70
2022-09-06T05:31:06.793Z,6.00
2022-09-06T05:33:34.442Z,6.28
2022-09-06T05:36:02.485Z,7.15
2022-09-06T05:38:31.499Z,6.95
2022-09-06T05:40:59.063Z,6.45
2022-09-06T05:43:26.585Z,5.53
2022-09-06T05:45:54.100Z,7.15
2022-09-06T05:48:21.690Z,6.45
2022-09-06T05:51:00.109Z,6.30
2022-09-06T05:53:27.637Z,6.13
2022-09-06T05:55:56.570Z,5.55
2022-09-06T05:58:24.101Z,5.57
2022-09-06T06:00:51.650Z,4.90
2022-09-06T06:03:19.216Z,6.22
2022-09-06T06:05:47.485Z,5.88
2022-09-06T06:08:14.996Z,5.53
2022-09-06T06:10:42.513Z,6.28
2022-09-06T06:13:11.455Z,6.57
2022-09-06T06:15:38.966Z,5.83
2022-09-06T06:18:06.983Z,5.30
2022-09-06T06:20:34.501Z,5.57
2022-09-06T06:23:01.940Z,6.68
2022-09-06T06:25:29.513Z,5.88
2022-09-06T06:27:56.574Z,5.47
2022-09-06T06:30:25.634Z,6.47
2022-09-06T06:32:53.151Z,6.35
2022-09-06T06:35:20.605Z,6.45
2022-09-06T06:37:48.091Z,6.22
2022-09-06T06:40:15.674Z,6.22
2022-09-06T06:42:43.847Z,7.18
2022-09-06T06:45:11.645Z,6.15
2022-09-06T06:47:40.614Z,6.47
2022-09-06T06:50:08.789Z,4.93
2022-09-06T06:52:36.269Z,4.72
2022-09-06T06:55:04.162Z,6.63
2022-09-06T06:57:31.659Z,5.63
2022-09-06T06:59:59.125Z,5.30
2022-09-06T07:02:26.690Z,6.03
2022-09-06T07:04:55.698Z,6.90
2022-09-06T07:07:30.707Z,5.30
2022-09-06T07:12:46.034Z,5.53
2022-09-06T07:15:13.597Z,6.38
2022-09-06T07:17:41.115Z,5.65
2022-09-06T07:22:39.753Z,5.35
2022-09-06T07:25:08.796Z,5.25
2022-09-06T07:27:51.544Z,5.40
2022-09-06T07:30:20.002Z,5.25
2022-09-06T07:32:47.748Z,5.65
2022-09-06T07:35:16.846Z,5.30
2022-09-06T07:37:51.413Z,5.00
2022-09-06T07:40:18.957Z,5.95
2022-09-06T07:42:46.420Z,4.55
2022-09-06T07:45:14.060Z,4.50
2022-09-06T07:53:16.615Z,4.53
2022-09-06T07:55:47.283Z,4.25
2022-09-06T07:58:14.785Z,4.18
2022-09-06T08:00:42.264Z,4.07
2022-09-06T08:03:09.930Z,3.92
2022-09-06T08:11:14.116Z,5.32
2022-09-06T08:13:41.903Z,5.05
2022-09-06T08:16:10.790Z,5.32
2022-09-06T08:18:38.537Z,5.57
2022-09-06T08:21:12.448Z,4.65
2022-09-06T08:23:41.850Z,5.05
2022-09-06T08:26:09.435Z,4.90
2022-09-06T08:28:37.093Z,5.05
2022-09-06T08:31:09.351Z,4.60
2022-09-06T08:33:37.081Z,5.32
2022-09-06T08:36:05.412Z,4.72
2022-09-06T08:38:34.801Z,4.50
2022-09-06T08:41:10.816Z,4.55
2022-09-06T08:43:39.313Z,5.20
2022-09-06T08:46:08.752Z,4.85
2022-09-06T08:48:37.681Z,4.55
2022-09-06T08:51:38.312Z,4.77
2022-09-06T08:54:15.860Z,4.35
2022-09-06T08:56:55.269Z,4.53
2022-09-06T08:59:23.286Z,4.57
2022-09-06T09:02:03.257Z,4.88
2022-09-06T09:04:32.047Z,4.88
2022-09-06T09:07:07.890Z,4.75
2022-09-06T09:09:36.840Z,4.43
2022-09-06T09:12:05.625Z,4.70
2022-09-06T09:14:37.194Z,5.70
2022-09-06T09:17:16.714Z,5.82
2022-09-06T09:19:44.399Z,5.00
2022-09-06T09:22:13.433Z,5.40
2022-09-06T09:24:42.392Z,5.13
2022-09-06T09:27:11.567Z,4.80
2022-09-06T09:32:46.477Z,5.63
2022-09-06T09:35:20.441Z,5.10
2022-09-06T09:37:50.326Z,5.97
2022-09-06T09:40:32.642Z,5.07
2022-09-06T09:43:13.850Z,5.32
2022-09-06T09:45:41.292Z,5.90
2022-09-06T09:48:21.143Z,6.50
2022-09-06T09:50:49.063Z,6.63
2022-09-06T09:53:19.819Z,5.93
2022-09-06T09:55:49.484Z,6.50
2022-09-06T09:58:24.363Z,6.60
2022-09-06T10:01:10.460Z,5.82
2022-09-06T10:09:19.241Z,8.90
2022-09-06T10:11:54.734Z,6.55
2022-09-06T10:14:28.374Z,6.90
2022-09-06T10:16:56.395Z,6.50
2022-09-06T10:19:36.129Z,6.35
2022-09-06T10:24:49.068Z,6.68
2022-09-06T10:27:25.713Z,7.03
2022-09-06T10:30:01.448Z,5.93
2022-09-06T10:32:40.500Z,5.72
2022-09-06T10:35:17.114Z,5.78
2022-09-06T10:38:16.435Z,6.80
2022-09-06T10:40:57.842Z,5.90
2022-09-06T10:43:31.104Z,6.45
2022-09-06T10:46:02.710Z,6.10
2022-09-06T10:48:31.938Z,6.15
2022-09-06T10:51:06.292Z,6.82
2022-09-06T10:53:39.947Z,6.30
2022-09-06T10:56:11.045Z,6.22
2022-09-06T11:01:40.434Z,6.63
2022-09-06T11:04:13.128Z,7.30
2022-09-06T11:06:45.033Z,6.95
2022-09-06T11:09:20.046Z,7.50
2022-09-06T11:11:51.235Z,8.05
2022-09-06T11:14:23.993Z,7.28
2022-09-06T11:16:57.845Z,6.95
2022-09-06T11:19:28.664Z,7.47
2022-09-06T11:22:34.851Z,6.95
2022-09-06T11:25:41.652Z,7.40
2022-09-06T11:28:11.953Z,7.03
2022-09-06T11:30:45.292Z,6.40
2022-09-06T11:33:23.407Z,6.47
2022-09-06T11:35:51.125Z,6.00
2022-09-06T11:38:23.447Z,6.65
2022-09-06T11:40:58.364Z,6.07
2022-09-06T11:43:47.255Z,6.75
2022-09-06T11:47:04.082Z,6.17
2022-09-06T11:49:34.157Z,6.10
2022-09-06T11:52:01.850Z,6.63
2022-09-06T11:54:41.514Z,6.20
2022-09-06T11:57:15.870Z,7.35
2022-09-06T11:59:54.627Z,6.70
2022-09-06T12:02:40.900Z,6.35
2022-09-06T12:05:17.649Z,7.47
2022-09-06T12:08:23.298Z,6.80
2022-09-06T12:11:01.145Z,6.78
2022-09-06T12:13:41.328Z,6.25
2022-09-06T12:16:11.871Z,6.88
2022-09-06T12:19:00.643Z,7.10
2022-09-06T12:21:41.303Z,7.15
2022-09-06T12:24:29.875Z,6.93
2022-09-06T12:27:11.609Z,7.13
2022-09-06T12:29:39.480Z,7.35
2022-09-06T12:32:07.090Z,6.78
2022-09-06T12:34:38.265Z,7.40
2022-09-06T12:37:08.189Z,6.57
2022-09-06T12:39:35.845Z,6.45
2022-09-06T12:42:05.186Z,7.18
2022-09-06T12:44:35.760Z,7.45
2022-09-06T12:47:09.693Z,7.75
2022-09-06T12:49:38.618Z,7.45
2022-09-06T12:52:08.205Z,7.73
2022-09-06T12:54:43.679Z,7.65
2022-09-06T12:57:19.099Z,6.70
2022-09-06T12:59:54.883Z,7.00
2022-09-06T13:02:30.822Z,7.47
2022-09-06T13:05:04.377Z,7.35
2022-09-06T13:07:32.855Z,6.68
2022-09-06T13:10:00.919Z,7.00
2022-09-06T13:12:32.872Z,7.40
2022-09-06T13:15:05.216Z,6.57
2022-09-06T13:17:32.927Z,6.30
2022-09-06T13:20:11.541Z,7.28
2022-09-06T13:22:42.559Z,6.30
2022-09-06T13:25:23.088Z,7.28
2022-09-06T13:27:52.237Z,6.68
2022-09-06T13:30:35.795Z,7.13
2022-09-06T13:33:06.139Z,6.85
2022-09-06T13:35:37.630Z,7.03
2022-09-06T13:38:32.925Z,7.50
2022-09-06T13:41:17.062Z,7.53
2022-09-06T13:43:46.359Z,7.47
2022-09-06T13:46:17.760Z,7.80
2022-09-06T13:48:45.278Z,7.78
2022-09-06T13:51:14.228Z,7.80
2022-09-06T13:53:41.779Z,7.90
2022-09-06T13:56:09.184Z,7.88
2022-09-06T13:58:36.720Z,8.70
2022-09-06T14:01:04.911Z,7.88
2022-09-06T14:03:33.143Z,8.23
2022-09-06T14:06:01.223Z,8.32
2022-09-06T14:08:49.300Z,8.25
2022-09-06T14:11:21.271Z,8.48
2022-09-06T14:13:48.783Z,8.73
2022-09-06T14:16:16.348Z,8.50
2022-09-06T14:18:43.922Z,8.98
2022-09-06T14:21:11.361Z,8.57
2022-09-06T14:23:40.304Z,8.70
2022-09-06T14:26:07.861Z,6.80
2022-09-06T14:28:35.268Z,8.45
2022-09-06T14:31:11.190Z,8.77
2022-09-06T14:33:38.661Z,9.02
2022-09-06T14:36:08.360Z,8.32
2022-09-06T14:38:37.382Z,8.48
2022-09-06T14:41:07.252Z,7.80
2022-09-06T14:43:35.485Z,7.80
2022-09-06T14:46:04.518Z,6.88
2022-09-06T14:48:33.604Z,7.78
2022-09-06T14:51:08.175Z,7.75
2022-09-06T14:53:40.640Z,7.57
2022-09-06T14:56:10.791Z,7.50
2022-09-06T15:01:11.369Z,7.70
2022-09-06T15:03:40.202Z,6.70
2022-09-06T15:06:08.153Z,7.55
2022-09-06T15:08:35.988Z,8.02
2022-09-06T15:11:03.924Z,7.85
2022-09-06T15:13:32.827Z,7.50
2022-09-06T15:16:00.347Z,7.37
2022-09-06T15:18:28.905Z,7.82
2022-09-06T15:20:56.495Z,7.88
2022-09-06T15:23:25.646Z,8.27
2022-09-06T15:25:53.492Z,7.65
2022-09-06T15:28:20.943Z,7.93
2022-09-06T15:30:49.962Z,7.47
2022-09-06T15:33:17.510Z,7.95
2022-09-06T15:35:45.041Z,8.10
2022-09-06T15:38:12.750Z,8.60
2022-09-06T15:40:40.218Z,8.23
2022-09-06T15:43:07.689Z,8.43
2022-09-06T15:45:46.583Z,8.18
2022-09-06T15:48:16.622Z,8.27
2022-09-06T15:50:51.380Z,8.70
2022-09-06T15:53:19.834Z,8.50
2022-09-06T15:55:47.294Z,8.65
2022-09-06T15:58:14.793Z,8.35
2022-09-06T16:00:42.250Z,8.13
2022-09-06T16:03:09.777Z,8.98
2022-09-06T16:08:26.185Z,9.30
2022-09-06T16:10:53.699Z,8.75
2022-09-06T16:13:21.161Z,9.30
2022-09-06T16:15:56.431Z,9.00
2022-09-06T16:18:23.873Z,8.23
2022-09-06T16:20:52.812Z,8.70
2022-09-06T16:23:20.692Z,8.77
2022-09-06T16:25:49.155Z,8.60
2022-09-06T16:28:16.691Z,8.93
2022-09-06T16:30:44.881Z,8.82
2022-09-06T16:33:12.576Z,9.93
2022-09-06T16:35:40.568Z,9.73
2022-09-06T16:38:09.596Z,9.48
2022-09-06T16:40:37.463Z,9.00
2022-09-06T16:43:04.956Z,8.90
2022-09-06T16:45:32.511Z,9.40
2022-09-06T16:47:59.958Z,9.27
2022-09-06T16:50:27.464Z,9.45
2022-09-06T16:52:54.936Z,10.10
2022-09-06T16:55:23.829Z,8.88
2022-09-06T16:57:51.316Z,9.77
2022-09-06T17:00:19.024Z,9.85
2022-09-06T17:02:47.202Z,9.93
2022-09-06T17:05:14.947Z,9.55
2022-09-06T17:07:42.424Z,9.88
2022-09-06T17:10:10.116Z,9.77
2022-09-06T17:12:38.995Z,9.65
2022-09-06T17:15:07.331Z,10.70
2022-09-06T17:17:34.818Z,10.13
2022-09-06T17:20:02.509Z,9.77
2022-09-06T17:22:29.988Z,10.25
2022-09-06T17:24:57.438Z,10.60
2022-09-06T17:27:24.882Z,10.23
2022-09-06T17:29:53.793Z,9.52
2022-09-06T17:32:21.700Z,10.60
2022-09-06T17:34:49.138Z,10.88
2022-09-06T17:37:16.661Z,10.63
2022-09-06T17:39:44.163Z,10.77
2022-09-06T17:42:11.689Z,10.60
2022-09-06T17:44:39.177Z,10.88
2022-09-06T17:47:12.921Z,10.32
2022-09-06T17:49:41.141Z,10.88
2022-09-06T17:52:08.865Z,11.13
2022-09-06T17:54:36.348Z,11.05
2022-09-06T17:57:04.316Z,11.65
2022-09-06T17:59:35.478Z,11.88
2022-09-06T18:02:03.971Z,11.45
2022-09-06T18:04:33.029Z,12.20
2022-09-06T18:07:00.539Z,12.07
2022-09-06T18:09:28.358Z,12.43
2022-09-06T18:11:55.855Z,12.40
2022-09-06T18:14:23.285Z,11.95
2022-09-06T18:16:52.224Z,12.00
2022-09-06T18:19:19.861Z,12.40
2022-09-06T18:21:48.783Z,11.93
2022-09-06T18:24:16.476Z,11.57
2022-09-06T18:26:44.294Z,12.35
2022-09-06T18:29:12.439Z,11.60
2022-09-06T18:31:39.990Z,11.85
2022-09-06T18:34:07.926Z,11.30
2022-09-06T18:36:35.749Z,10.65
2022-09-06T18:39:05.440Z,11.70
2022-09-06T18:41:33.988Z,10.90
2022-09-06T18:44:02.011Z,10.20
2022-09-06T18:46:30.049Z,10.30
2022-09-06T18:48:57.767Z,10.25
2022-09-06T18:51:25.571Z,10.65
2022-09-06T18:53:53.344Z,10.38
2022-09-06T18:56:22.396Z,10.30
2022-09-06T18:58:49.943Z,10.07
2022-09-06T19:01:18.564Z,10.70
2022-09-06T19:03:46.045Z,10.05
2022-09-06T19:06:15.252Z,10.35
2022-09-06T19:08:43.298Z,9.88
2022-09-06T19:11:13.040Z,9.82
2022-09-06T19:16:10.720Z,9.02
2022-09-06T19:18:39.465Z,10.43
2022-09-06T19:21:08.674Z,9.95
2022-09-06T19:23:38.376Z,8.98
2022-09-06T19:28:34.471Z,9.02
2022-09-06T19:31:08.531Z,9.20
2022-09-06T19:33:36.494Z,8.90
2022-09-06T19:36:11.474Z,9.23
2022-09-06T19:39:02.378Z,8.85
2022-09-06T19:41:29.106Z,9.32
2022-09-06T19:43:57.767Z,9.25
2022-09-06T19:46:27.614Z,8.50
2022-09-06T19:48:55.592Z,8.45
2022-09-06T19:51:23.990Z,9.40
2022-09-06T19:53:52.626Z,8.27
2022-09-06T19:56:21.613Z,8.40
2022-09-06T19:58:53.643Z,8.50
2022-09-06T20:01:21.799Z,8.52
2022-09-06T20:03:51.221Z,8.60
2022-09-06T20:06:18.748Z,8.07
2022-09-06T20:08:50.006Z,8.65
2022-09-06T20:11:18.839Z,8.52
2022-09-06T20:13:46.682Z,8.52
2022-09-06T20:16:14.392Z,8.48
2022-09-06T20:18:42.249Z,8.32
2022-09-06T20:21:12.017Z,9.10
2022-09-06T20:23:40.676Z,8.43
2022-09-06T20:26:09.465Z,8.43
2022-09-06T20:28:37.544Z,8.57
2022-09-06T20:31:07.001Z,8.00
2022-09-06T20:33:35.235Z,8.43
2022-09-06T20:36:04.499Z,8.25
2022-09-06T20:38:35.392Z,8.77
2022-09-06T20:41:04.691Z,8.68
2022-09-06T20:43:33.391Z,8.40
2022-09-06T20:46:00.936Z,8.35
2022-09-06T20:48:28.466Z,8.45
2022-09-06T20:50:59.909Z,7.93
2022-09-06T20:53:27.584Z,7.65
2022-09-06T20:56:01.471Z,7.38
2022-09-06T20:58:29.969Z,7.88
2022-09-06T21:00:57.833Z,8.07
2022-09-06T21:03:26.568Z,7.53
2022-09-06T21:05:54.329Z,7.50
2022-09-06T21:08:21.779Z,7.50
2022-09-06T21:10:49.231Z,6.82
2022-09-06T21:13:18.127Z,6.72
2022-09-06T21:15:47.859Z,7.20
2022-09-06T21:20:42.346Z,7.28
2022-09-06T21:23:09.813Z,6.55
2022-09-06T21:25:37.224Z,6.72
2022-09-06T21:28:04.700Z,7.03
2022-09-06T21:30:33.603Z,6.68
2022-09-06T21:33:01.014Z,7.13
2022-09-06T21:35:28.460Z,6.60
2022-09-06T21:37:55.916Z,6.15
2022-09-06T21:40:23.368Z,6.55
2022-09-06T21:42:50.781Z,6.60
2022-09-06T21:45:18.360Z,7.03
2022-09-06T21:47:47.242Z,6.15
2022-09-06T21:50:14.816Z,6.17
2022-09-06T21:52:42.214Z,6.53
2022-09-06T21:55:13.552Z,6.35
2022-09-06T21:57:42.931Z,6.40
2022-09-06T22:00:11.472Z,6.50
2022-09-06T22:02:38.992Z,6.03
2022-09-06T22:05:08.804Z,6.80
2022-09-06T22:10:04.352Z,6.10
2022-09-06T22:12:31.819Z,6.43
2022-09-06T22:14:59.255Z,7.28
2022-09-06T22:17:26.771Z,7.47
2022-09-06T22:19:54.240Z,8.82
2022-09-06T22:22:23.090Z,11.07
2022-09-06T22:24:50.607Z,14.23
2022-09-06T22:27:18.065Z,19.40
2022-09-06T22:29:45.511Z,22.40
2022-09-06T22:32:12.989Z,29.00
2022-09-06T22:34:40.452Z,31.65
2022-09-06T22:37:07.872Z,35.28
2022-09-06T22:39:36.914Z,37.80
2022-09-06T22:42:04.839Z,41.63
2022-09-06T22:44:32.271Z,40.35
2022-09-06T22:46:59.770Z,44.30
2022-09-06T22:49:27.285Z,44.30
2022-09-06T22:51:54.731Z,46.67
2022-09-06T22:54:22.147Z,46.38
2022-09-06T22:56:51.142Z,45.83
2022-09-06T22:59:18.716Z,47.10
2022-09-06T23:01:46.143Z,47.38
2022-09-06T23:04:14.054Z,47.47
2022-09-06T23:06:41.514Z,47.13
2022-09-06T23:09:08.952Z,46.38
2022-09-06T23:11:36.457Z,45.80
2022-09-06T23:14:05.463Z,45.15
2022-09-06T23:16:33.016Z,44.63
2022-09-06T23:19:00.557Z,45.78
2022-09-06T23:21:27.969Z,44.25
2022-09-06T23:23:56.327Z,44.53
2022-09-06T23:26:25.454Z,45.33
2022-09-06T23:28:53.508Z,42.42
2022-09-06T23:31:23.900Z,42.20
2022-09-06T23:33:52.488Z,41.83
2022-09-06T23:36:20.118Z,39.63
2022-09-06T23:38:48.032Z,40.50
2022-09-06T23:41:16.099Z,40.13
2022-09-06T23:43:44.006Z,38.80
2022-09-06T23:46:12.973Z,38.13
2022-09-06T23:48:42.501Z,37.47
2022-09-06T23:51:10.272Z,37.33
2022-09-06T23:53:38.208Z,36.17
2022-09-06T23:56:06.472Z,36.67
2022-09-06T23:58:33.971Z,34.55
